メインページ
METAR-TAF:

METAR-TAF

空港 :

マタベリ国際空港

イースター島, チリ

緯度: 27-09S, 経度: 109-25W, 海抜: 51m

現時点の気象観測

当レポートは14分前の06:00(UTC)に作成
東/南東の風 3kt、北東から東/南東の間で変化する
気温 20°C
湿度 88%
気圧 1018 hPa
視程10km以上
高度2500ftの雲はほとんどない

METAR: SCIP 210600Z 11003KT 040V120 9999 FEW025 20/18 Q1018 NOSIG

時間: 01:14 (06:14 UTC)

予報

当レポートは1時間32分前の04:42(UTC)に作成
予報は21日の 06時(UTC)から 22日の 06時(UTC)まで有効
の風 4kt
視程10km以上
高度2300ftの雲は散在している
21日の 09時(UTC)から 21日の 11時(UTC)まで徐々に
高度2000ftの雲はほとんどない
高度4000ftの雲は散在している
21日の 12時(UTC)から 21日の 14時(UTC)まで一時的に
の風 4kt
視程: 7000m
高度2000ftの雲は散在している
高度3000ftの千切れ雲あり
弱いにわか雨
21日の 15時(UTC)から 21日の 17時(UTC)まで徐々に
の風 10kt
21日の 18時(UTC)から 21日の 23時(UTC)まで一時的に
北西の風 5kt
視程: 5000m
高度1500ftの雲は散在している
高度3000ftの千切れ雲あり
弱いにわか雨
22日の 00時(UTC)から 22日の 02時(UTC)まで徐々に
視程: 7000m
高度1600ftの雲は散在している
高度3000ftの千切れ雲あり
にわか雨

TAF: SCIP 210442Z 2106/2206 10004KT 9999 SCT023 TN20/2110Z TX27/2119Z BECMG 2109/2111 FEW020 SCT040 TEMPO 2112/2114 35004KT 7000 -SHRA SCT020 BKN030 BECMG 2115/2117 35010KT TEMPO 2118/2123 32005KT 5000 -SHRA SCT015 BKN030 BECMG 2200/2202 7000 SHRA SCT016 BKN030

4,000以上の空港の気象観測と天気予報(METAR報とTAF報)

利用可能な観測所は地図上に黄色い丸と赤い丸で示す。

丸の上にカーソルを重ねると観測所名を参照できる。

次にクリックすると気象観測と天気予報を参照できる。

マップの切り替え:黒色「×」印の緑ボタンをクリックして拡大、「-」印の緑ボタンをクリックして縮小、緑色の三角印をクリックして隣りの地図に切り替え


METAR-TAF: